createdAt,value
2022-08-09T00:02:29.150Z,95157.09
2022-08-09T00:05:02.920Z,95146.59
2022-08-09T00:07:44.592Z,95156.06
2022-08-09T00:10:18.260Z,95160.81
2022-08-09T00:12:52.581Z,95165.56
2022-08-09T00:15:35.658Z,95160.84
2022-08-09T00:18:12.164Z,95164.25
2022-08-09T00:20:42.172Z,95166.56
2022-08-09T00:23:54.747Z,95163.88
2022-08-09T00:26:10.911Z,95161.75
2022-08-09T00:28:39.693Z,95166.72
2022-08-09T00:31:30.773Z,95164.06
2022-08-09T00:33:54.844Z,95166.91
2022-08-09T00:36:27.270Z,95177.34
2022-08-09T00:38:58.629Z,95152.03
2022-08-09T00:44:13.805Z,95163.97
2022-08-09T00:44:19.712Z,95175.41
2022-08-09T00:47:04.865Z,95173.19
2022-08-09T00:49:34.882Z,95174.94
2022-08-09T00:52:06.167Z,95187.25
2022-08-09T00:54:43.135Z,95185.91
2022-08-09T00:57:12.270Z,95183.00
2022-08-09T00:59:46.299Z,95179.00
2022-08-09T01:02:19.301Z,95175.56
2022-08-09T01:04:59.135Z,95171.06
2022-08-09T01:07:59.729Z,95163.97
2022-08-09T01:10:35.861Z,95164.50
2022-08-09T01:13:22.524Z,95159.75
2022-08-09T01:15:53.033Z,95156.56
2022-08-09T01:18:30.549Z,95147.09
2022-08-09T01:21:07.127Z,95151.88
2022-08-09T01:24:16.196Z,95157.97
2022-08-09T01:27:07.868Z,95157.53
2022-08-09T01:29:56.631Z,95145.56
2022-08-09T01:32:45.943Z,95142.13
2022-08-09T01:35:37.406Z,95145.03
2022-08-09T01:38:15.051Z,95163.00
2022-08-09T01:40:52.918Z,95163.31
2022-08-09T01:43:41.842Z,95165.69
2022-08-09T01:46:29.529Z,95158.81
2022-08-09T01:49:10.107Z,95153.53
2022-08-09T01:51:42.872Z,95148.84
2022-08-09T01:54:13.888Z,95153.41
2022-08-09T01:56:47.137Z,95152.72
2022-08-09T01:59:21.433Z,95155.94
2022-08-09T02:01:59.103Z,95149.63
2022-08-09T02:04:28.535Z,95137.56
2022-08-09T02:08:34.745Z,95150.22
2022-08-09T02:10:11.098Z,95147.56
2022-08-09T02:12:39.232Z,95140.75
2022-08-09T02:15:15.449Z,95143.38
2022-08-09T02:17:59.933Z,95135.75
2022-08-09T02:20:46.798Z,95138.69
2022-08-09T02:23:42.648Z,95132.69
2022-08-09T02:26:26.895Z,95135.06
2022-08-09T02:28:56.202Z,95138.56
2022-08-09T02:31:34.025Z,95141.22
2022-08-09T02:34:13.745Z,95150.69
2022-08-09T02:37:01.470Z,95144.13
2022-08-09T02:39:41.987Z,95143.03
2022-08-09T02:42:16.689Z,95128.66
2022-08-09T02:44:52.677Z,95144.16
2022-08-09T02:47:22.667Z,95144.72
2022-08-09T02:50:12.002Z,95151.56
2022-08-09T02:52:55.264Z,95145.28
2022-08-09T02:55:46.863Z,95138.47
2022-08-09T02:58:36.205Z,95145.31
2022-08-09T03:01:04.532Z,95142.44
2022-08-09T03:04:13.011Z,95129.59
2022-08-09T03:06:25.207Z,95138.53
2022-08-09T03:08:55.568Z,95138.56
2022-08-09T03:11:29.750Z,95138.56
2022-08-09T03:14:12.006Z,95147.00
2022-08-09T03:16:44.792Z,95143.31
2022-08-09T03:19:14.465Z,95150.44
2022-08-09T03:22:03.048Z,95149.16
2022-08-09T03:24:42.367Z,95149.16
2022-08-09T03:27:21.360Z,95158.16
2022-08-09T03:30:01.009Z,95157.63
2022-08-09T03:32:32.086Z,95150.25
2022-08-09T03:35:00.472Z,95153.94
2022-08-09T03:37:56.493Z,95149.75
2022-08-09T03:40:17.928Z,95157.13
2022-08-09T03:42:46.716Z,95157.63
2022-08-09T03:45:14.225Z,95154.50
2022-08-09T03:47:46.451Z,95151.84
2022-08-09T03:50:18.787Z,95152.41
2022-08-09T03:53:03.067Z,95150.81
2022-08-09T03:55:30.273Z,95156.84
2022-08-09T03:58:09.921Z,95166.09
2022-08-09T04:00:45.588Z,95166.34
2022-08-09T04:03:24.849Z,95156.88
2022-08-09T04:06:04.681Z,95169.22
2022-08-09T04:08:34.955Z,95166.59
2022-08-09T04:11:02.452Z,95170.28
2022-08-09T04:14:37.693Z,95172.91
2022-08-09T04:16:20.171Z,95171.88
2022-08-09T04:18:48.080Z,95174.50
2022-08-09T04:21:18.027Z,95158.72
2022-08-09T04:23:53.922Z,95174.47
2022-08-09T04:26:24.243Z,95179.72
2022-08-09T04:28:52.422Z,95177.09
2022-08-09T04:31:21.878Z,95181.28
2022-08-09T04:33:56.799Z,95179.41
2022-08-09T04:36:28.856Z,95186.00
2022-08-09T04:38:59.212Z,95183.88
2022-08-09T04:41:33.058Z,95190.19
2022-08-09T04:44:06.468Z,95183.03
2022-08-09T04:46:59.351Z,95188.50
2022-08-09T04:49:53.736Z,95187.94
2022-08-09T04:52:27.088Z,95187.38
2022-08-09T04:54:56.029Z,95199.97
2022-08-09T04:57:23.920Z,95186.19
2022-08-09T04:59:54.984Z,95201.44
2022-08-09T05:02:23.437Z,95199.75
2022-08-09T05:04:55.019Z,95204.91
2022-08-09T05:07:22.580Z,95195.91
2022-08-09T05:09:52.969Z,95214.75
2022-08-09T05:12:27.834Z,95204.84
2022-08-09T05:14:54.612Z,95192.06
2022-08-09T05:18:37.416Z,95210.66
2022-08-09T05:20:09.702Z,95205.47
2022-08-09T05:23:53.702Z,95198.56
2022-08-09T05:25:26.695Z,95199.69
2022-08-09T05:27:59.330Z,95196.91
2022-08-09T05:30:27.453Z,95203.31
2022-08-09T05:32:58.200Z,95204.00
2022-08-09T05:35:25.871Z,95194.41
2022-08-09T05:37:55.936Z,95211.97
2022-08-09T05:40:23.487Z,95207.44
2022-08-09T05:42:50.666Z,95207.09
2022-08-09T05:45:17.612Z,95213.03
2022-08-09T05:47:51.585Z,95212.84
2022-08-09T05:50:36.178Z,95212.22
2022-08-09T05:53:21.813Z,95207.25
2022-08-09T05:55:58.577Z,95187.22
2022-08-09T05:58:25.535Z,95219.25
2022-08-09T06:00:53.604Z,95220.69
2022-08-09T06:03:20.586Z,95213.06
2022-08-09T06:05:54.739Z,95214.78
2022-08-09T06:08:27.690Z,95213.22
2022-08-09T06:10:55.579Z,95215.47
2022-08-09T06:13:23.166Z,95211.06
2022-08-09T06:15:51.336Z,95215.19
2022-08-09T06:18:24.996Z,95219.22
2022-08-09T06:20:57.178Z,95219.34
2022-08-09T06:23:57.873Z,95217.66
2022-08-09T06:26:14.788Z,95211.44
2022-08-09T06:28:47.454Z,95228.28
2022-08-09T06:31:14.351Z,95235.22
2022-08-09T06:33:42.110Z,95222.97
2022-08-09T06:36:15.664Z,95213.09
2022-08-09T06:38:49.871Z,95207.16
2022-08-09T06:41:18.958Z,95221.38
2022-08-09T06:43:48.387Z,95216.53
2022-08-09T06:46:39.884Z,95217.53
2022-08-09T06:49:02.995Z,95216.31
2022-08-09T06:51:30.885Z,95215.47
2022-08-09T06:54:00.853Z,95217.28
2022-08-09T06:56:30.582Z,95208.72
2022-08-09T07:00:57.134Z,95215.22
2022-08-09T07:01:54.144Z,95209.84
2022-08-09T07:04:26.967Z,95210.97
2022-08-09T07:07:00.728Z,95210.88
2022-08-09T07:09:56.122Z,95213.31
2022-08-09T07:12:20.139Z,95213.00
2022-08-09T07:14:51.146Z,95205.94
2022-08-09T07:17:20.073Z,95206.03
2022-08-09T07:19:48.160Z,95209.34
2022-08-09T07:22:18.824Z,95216.88
2022-08-09T07:25:01.575Z,95210.44
2022-08-09T07:27:34.029Z,95205.91
2022-08-09T07:30:02.537Z,95203.25
2022-08-09T07:32:33.594Z,95210.09
2022-08-09T07:35:10.190Z,95214.28
2022-08-09T07:37:43.488Z,95204.56
2022-08-09T07:40:16.711Z,95214.06
2022-08-09T07:42:50.124Z,95206.19
2022-08-09T07:45:33.248Z,95209.88
2022-08-09T07:48:05.015Z,95211.06
2022-08-09T07:50:34.881Z,95208.84
2022-08-09T07:53:05.105Z,95214.19
2022-08-09T07:55:41.659Z,95217.56
2022-08-09T07:58:21.620Z,95217.50
2022-08-09T08:00:58.640Z,95212.44
2022-08-09T08:03:36.904Z,95206.50
2022-08-09T08:06:05.004Z,95206.56
2022-08-09T08:09:02.146Z,95207.66
2022-08-09T08:12:24.054Z,95203.56
2022-08-09T08:14:06.762Z,95193.22
2022-08-09T08:16:34.617Z,95198.22
2022-08-09T08:19:02.823Z,95192.28
2022-08-09T08:21:31.282Z,95195.03
2022-08-09T08:24:01.441Z,95184.78
2022-08-09T08:26:55.110Z,95189.69
2022-08-09T08:29:28.168Z,95189.22
2022-08-09T08:32:04.047Z,95184.75
2022-08-09T08:34:34.578Z,95182.88
2022-08-09T08:37:03.431Z,95176.31
2022-08-09T08:39:39.750Z,95182.38
2022-08-09T08:42:10.740Z,95181.81
2022-08-09T08:44:37.774Z,95184.84
2022-08-09T08:47:12.911Z,95192.09
2022-08-09T08:49:48.291Z,95183.38
2022-08-09T08:55:08.859Z,95180.84
2022-08-09T08:57:37.624Z,95167.09
2022-08-09T09:00:20.392Z,95182.28
2022-08-09T09:03:04.436Z,95184.75
2022-08-09T09:05:59.855Z,95182.56
2022-08-09T09:08:31.147Z,95175.88
2022-08-09T09:11:04.081Z,95178.63
2022-08-09T09:13:47.365Z,95182.41
2022-08-09T09:16:29.936Z,95168.22
2022-08-09T09:19:15.676Z,95167.25
2022-08-09T09:21:58.560Z,95179.22
2022-08-09T09:24:29.758Z,95175.47
2022-08-09T09:26:58.819Z,95168.63
2022-08-09T09:30:10.636Z,95172.25
2022-08-09T09:32:32.453Z,95166.63
2022-08-09T09:35:12.847Z,95162.66
2022-08-09T09:37:46.043Z,95174.00
2022-08-09T09:40:13.331Z,95166.16
2022-08-09T09:42:43.045Z,95167.38
2022-08-09T09:45:14.302Z,95166.56
2022-08-09T09:47:56.735Z,95163.09
2022-08-09T09:50:50.691Z,95168.88
2022-08-09T09:53:43.935Z,95165.38
2022-08-09T09:56:19.760Z,95162.31
2022-08-09T09:58:49.216Z,95159.53
2022-08-09T10:01:37.657Z,95156.91
2022-08-09T10:04:22.862Z,95164.69
2022-08-09T10:06:58.180Z,95150.59
2022-08-09T10:09:55.010Z,95157.84
2022-08-09T10:12:37.254Z,95153.34
2022-08-09T10:15:25.331Z,95149.81
2022-08-09T10:17:56.224Z,95153.06
2022-08-09T10:20:45.219Z,95142.41
2022-08-09T10:23:20.300Z,95147.22
2022-08-09T10:26:06.623Z,95152.81
2022-08-09T10:28:38.980Z,95141.06
2022-08-09T10:34:11.400Z,95149.47
2022-08-09T10:36:43.244Z,95152.97
2022-08-09T10:39:15.602Z,95152.91
2022-08-09T10:41:47.629Z,95136.84
2022-08-09T10:44:23.087Z,95149.06
2022-08-09T10:48:16.615Z,95153.09
2022-08-09T10:50:27.276Z,95151.22
2022-08-09T10:53:17.178Z,95143.50
2022-08-09T10:55:58.046Z,95146.56
2022-08-09T10:58:31.250Z,95153.56
2022-08-09T11:03:05.599Z,95139.63
2022-08-09T11:04:28.023Z,95150.50
2022-08-09T11:07:00.220Z,95138.88
2022-08-09T11:09:41.427Z,95152.41
2022-08-09T11:12:30.351Z,95150.47
2022-08-09T11:15:19.364Z,95138.09
2022-08-09T11:17:56.724Z,95131.16
2022-08-09T11:20:41.585Z,95144.72
2022-08-09T11:23:10.834Z,95131.94
2022-08-09T11:25:47.744Z,95145.78
2022-08-09T11:28:38.664Z,95143.28
2022-08-09T11:31:43.360Z,95135.88
2022-08-09T11:34:22.648Z,95128.69
2022-08-09T11:36:52.044Z,95120.03
2022-08-09T11:39:22.023Z,95124.91
2022-08-09T11:41:53.645Z,95101.44
2022-08-09T11:44:44.328Z,95127.22
2022-08-09T11:47:14.649Z,95127.03
2022-08-09T11:50:53.641Z,95128.28
2022-08-09T11:53:15.761Z,95130.75
2022-08-09T11:55:51.979Z,95118.94
2022-08-09T11:58:19.825Z,95116.00
2022-08-09T12:01:08.580Z,95118.00
2022-08-09T12:03:55.859Z,95116.44
2022-08-09T12:06:32.678Z,95126.50
2022-08-09T12:09:17.638Z,95111.75
2022-08-09T12:12:04.044Z,95117.97
2022-08-09T12:14:40.796Z,95111.75
2022-08-09T12:17:33.838Z,95118.69
2022-08-09T12:20:22.265Z,95107.75
2022-08-09T12:22:56.336Z,95115.50
2022-08-09T12:25:35.660Z,95110.91
2022-08-09T12:29:09.603Z,95100.41
2022-08-09T12:30:57.787Z,95099.31
2022-08-09T12:33:26.459Z,95093.47
2022-08-09T12:36:27.510Z,95091.28
2022-08-09T12:38:59.862Z,95092.56
2022-08-09T12:41:38.062Z,95091.44
2022-08-09T12:44:12.553Z,95081.19
2022-08-09T12:46:48.773Z,95083.16
2022-08-09T12:49:20.857Z,95088.00
2022-08-09T12:52:02.406Z,95077.38
2022-08-09T12:55:03.113Z,95067.47
2022-08-09T12:57:39.742Z,95071.31
2022-08-09T13:00:25.814Z,95066.56
2022-08-09T13:02:58.604Z,95063.00
2022-08-09T13:05:50.881Z,95062.25
2022-08-09T13:08:40.221Z,95053.63
2022-08-09T13:11:23.096Z,95050.59
2022-08-09T13:14:37.185Z,95051.81
2022-08-09T13:16:46.910Z,95072.53
2022-08-09T13:20:08.356Z,95070.66
2022-08-09T13:22:37.022Z,95071.50
2022-08-09T13:25:07.667Z,95070.19
2022-08-09T13:27:48.952Z,95080.00
2022-08-09T13:30:51.050Z,95074.78
2022-08-09T13:33:21.184Z,95071.53
2022-08-09T13:36:39.657Z,95061.69
2022-08-09T13:38:55.012Z,95073.22
2022-08-09T13:41:59.070Z,95066.94
2022-08-09T13:44:16.612Z,95058.63
2022-08-09T13:47:29.477Z,95071.56
2022-08-09T13:49:37.725Z,95075.88
2022-08-09T13:52:08.884Z,95069.41
2022-08-09T13:54:42.757Z,95067.47
2022-08-09T13:57:36.656Z,95060.34
2022-08-09T14:00:05.511Z,95074.25
2022-08-09T14:02:42.618Z,95069.09
2022-08-09T14:06:01.185Z,95062.41
2022-08-09T14:08:12.229Z,95051.69
2022-08-09T14:10:49.374Z,95061.44
2022-08-09T14:13:28.035Z,95060.09
2022-08-09T14:16:14.074Z,95042.97
2022-08-09T14:18:46.051Z,95056.81
2022-08-09T14:21:22.498Z,95053.50
2022-08-09T14:23:56.539Z,95056.00
2022-08-09T14:26:30.537Z,95046.53
2022-08-09T14:29:07.738Z,95057.31
2022-08-09T14:31:54.058Z,95041.53
2022-08-09T14:34:31.165Z,95046.94
2022-08-09T14:37:06.558Z,95043.19
2022-08-09T14:39:46.396Z,95042.84
2022-08-09T14:42:30.259Z,95045.00
2022-08-09T14:46:57.244Z,95038.34
2022-08-09T14:48:14.471Z,95037.75
2022-08-09T14:50:41.284Z,95056.38
2022-08-09T14:53:12.187Z,95048.44
2022-08-09T14:55:49.915Z,95046.41
2022-08-09T14:58:17.723Z,95032.75
2022-08-09T15:00:48.641Z,95022.56
2022-08-09T15:03:20.071Z,95024.78
2022-08-09T15:05:52.638Z,95041.88
2022-08-09T15:08:24.276Z,95037.88
2022-08-09T15:11:00.965Z,95043.19
2022-08-09T15:13:56.110Z,95031.22
2022-08-09T15:16:31.757Z,95028.88
2022-08-09T15:19:02.575Z,95032.72
2022-08-09T15:21:54.855Z,95027.09
2022-08-09T15:24:27.565Z,95029.38
2022-08-09T15:26:54.455Z,95028.50
2022-08-09T15:30:55.572Z,95030.44
2022-08-09T15:32:28.905Z,95028.69
2022-08-09T15:34:56.425Z,95025.28
2022-08-09T15:38:10.896Z,95021.25
2022-08-09T15:40:43.457Z,95006.53
2022-08-09T15:43:14.318Z,95001.50
2022-08-09T15:45:52.085Z,95003.16
2022-08-09T15:48:31.694Z,95014.94
2022-08-09T15:51:02.989Z,95019.59
2022-08-09T15:54:07.434Z,94995.38
2022-08-09T15:56:36.733Z,95001.13
2022-08-09T15:59:04.164Z,95002.22
2022-08-09T16:01:35.808Z,95003.69
2022-08-09T16:04:03.183Z,94986.75
2022-08-09T16:06:35.473Z,94987.50
2022-08-09T16:09:05.831Z,95012.69
2022-08-09T16:11:33.707Z,95016.47
2022-08-09T16:14:07.106Z,95035.03
2022-08-09T16:16:38.063Z,95039.00
2022-08-09T16:19:13.473Z,95035.69
2022-08-09T16:21:41.558Z,95036.97
2022-08-09T16:24:32.864Z,95028.34
2022-08-09T16:27:01.041Z,95020.75
2022-08-09T16:29:36.888Z,94994.72
2022-08-09T16:32:20.236Z,95005.91
2022-08-09T16:34:57.050Z,95006.28
2022-08-09T16:37:53.921Z,95006.00
2022-08-09T16:40:14.259Z,94993.22
2022-08-09T16:42:48.068Z,94989.16
2022-08-09T16:45:21.666Z,95003.06
2022-08-09T16:48:50.769Z,95005.72
2022-08-09T16:50:38.547Z,95011.81
2022-08-09T16:53:06.054Z,95016.47
2022-08-09T16:55:58.677Z,95034.78
2022-08-09T16:58:21.112Z,95032.28
2022-08-09T17:00:50.253Z,95043.78
2022-08-09T17:03:21.322Z,95028.59
2022-08-09T17:06:08.733Z,95037.22
2022-08-09T17:09:00.280Z,95033.75
2022-08-09T17:11:40.389Z,95042.22
2022-08-09T17:14:25.945Z,95036.56
2022-08-09T17:16:54.010Z,95042.09
2022-08-09T17:19:21.115Z,95043.66
2022-08-09T17:21:55.448Z,95045.25
2022-08-09T17:24:27.987Z,95050.44
2022-08-09T17:26:58.285Z,95062.47
2022-08-09T17:29:31.754Z,95060.19
2022-08-09T17:32:05.060Z,95061.78
2022-08-09T17:35:04.205Z,95068.78
2022-08-09T17:37:19.563Z,95066.56
2022-08-09T17:39:52.125Z,95062.75
2022-08-09T17:42:41.012Z,95067.00
2022-08-09T17:45:16.106Z,95064.25
2022-08-09T17:47:54.836Z,95066.63
2022-08-09T17:50:36.301Z,95067.63
2022-08-09T17:53:19.703Z,95070.63
2022-08-09T17:55:55.340Z,95067.91
2022-08-09T17:58:27.105Z,95075.84
2022-08-09T18:00:56.535Z,95078.41
2022-08-09T18:03:24.910Z,95092.63
2022-08-09T18:05:53.285Z,95073.72
2022-08-09T18:08:21.885Z,95080.81
2022-08-09T18:11:02.201Z,95060.94
2022-08-09T18:13:38.815Z,95096.03
2022-08-09T18:16:30.524Z,95097.66
2022-08-09T18:19:03.932Z,95109.47
2022-08-09T18:21:50.308Z,95099.59
2022-08-09T18:24:20.212Z,95110.41
2022-08-09T18:26:56.939Z,95115.19
2022-08-09T18:30:38.593Z,95110.47
2022-08-09T18:32:11.456Z,95112.31
2022-08-09T18:34:41.026Z,95117.34
2022-08-09T18:37:10.340Z,95118.88
2022-08-09T18:40:05.962Z,95122.59
2022-08-09T18:42:34.937Z,95130.75
2022-08-09T18:45:09.073Z,95123.53
2022-08-09T18:47:50.139Z,95123.22
2022-08-09T18:50:19.412Z,95140.75
2022-08-09T18:52:51.583Z,95141.94
2022-08-09T18:55:45.316Z,95137.56
2022-08-09T18:58:10.156Z,95146.69
2022-08-09T19:00:40.053Z,95143.44
2022-08-09T19:03:09.897Z,95140.47
2022-08-09T19:05:48.852Z,95141.38
2022-08-09T19:08:28.299Z,95141.22
2022-08-09T19:10:57.818Z,95138.97
2022-08-09T19:13:38.350Z,95151.06
2022-08-09T19:16:20.837Z,95153.88
2022-08-09T19:18:48.385Z,95153.19
2022-08-09T19:21:21.620Z,95158.00
2022-08-09T19:24:39.614Z,95148.09
2022-08-09T19:26:56.005Z,95161.69
2022-08-09T19:29:23.088Z,95154.66
2022-08-09T19:32:00.111Z,95151.31
2022-08-09T19:34:29.072Z,95153.31
2022-08-09T19:36:58.113Z,95156.75
2022-08-09T19:39:42.992Z,95158.56
2022-08-09T19:42:19.481Z,95157.69
2022-08-09T19:44:50.878Z,95164.03
2022-08-09T19:47:23.011Z,95156.72
2022-08-09T19:50:10.140Z,95162.63
2022-08-09T19:52:38.472Z,95163.06
2022-08-09T19:55:30.658Z,95150.25
2022-08-09T19:58:07.246Z,95154.00
2022-08-09T20:00:45.565Z,95148.09
2022-08-09T20:04:10.707Z,95161.38
2022-08-09T20:06:03.382Z,95164.25
2022-08-09T20:08:35.414Z,95146.00
2022-08-09T20:11:04.718Z,95151.38
2022-08-09T20:13:37.323Z,95154.91
2022-08-09T20:16:34.153Z,95153.28
2022-08-09T20:19:42.880Z,95156.72
2022-08-09T20:21:57.292Z,95139.28
2022-08-09T20:24:29.764Z,95160.19
2022-08-09T20:27:05.714Z,95154.78
2022-08-09T20:29:37.235Z,95155.47
2022-08-09T20:32:29.178Z,95149.84
2022-08-09T20:34:58.545Z,95165.38
2022-08-09T20:37:25.416Z,95163.41
2022-08-09T20:40:15.691Z,95170.56
2022-08-09T20:42:53.251Z,95178.03
2022-08-09T20:45:59.757Z,95173.81
2022-08-09T20:48:21.223Z,95177.53
2022-08-09T20:50:51.076Z,95175.56
2022-08-09T20:53:36.545Z,95172.13
2022-08-09T20:56:20.259Z,95162.47
2022-08-09T20:58:49.659Z,95157.09
2022-08-09T21:01:34.887Z,95159.03
2022-08-09T21:05:48.581Z,95165.53
2022-08-09T21:06:51.205Z,95171.22
2022-08-09T21:09:32.849Z,95147.22
2022-08-09T21:14:36.979Z,95165.34
2022-08-09T21:18:21.643Z,95158.69
2022-08-09T21:20:18.395Z,95166.72
2022-08-09T21:22:46.834Z,95169.50
2022-08-09T21:25:38.037Z,95173.63
2022-08-09T21:28:07.120Z,95173.81
2022-08-09T21:30:37.081Z,95187.97
2022-08-09T21:33:09.358Z,95179.72
2022-08-09T21:35:39.462Z,95179.53
2022-08-09T21:38:21.161Z,95181.09
2022-08-09T21:40:58.700Z,95179.13
2022-08-09T21:43:57.199Z,95174.03
2022-08-09T21:46:13.678Z,95185.00
2022-08-09T21:48:42.736Z,95178.53
2022-08-09T21:51:24.231Z,95170.66
2022-08-09T21:54:02.764Z,95177.31
2022-08-09T21:56:43.160Z,95177.72
2022-08-09T21:59:16.512Z,95174.56
2022-08-09T22:01:59.183Z,95177.72
2022-08-09T22:04:55.408Z,95183.22
2022-08-09T22:07:35.298Z,95187.91
2022-08-09T22:10:04.345Z,95177.44
2022-08-09T22:12:32.039Z,95169.00
2022-08-09T22:14:59.470Z,95175.41
2022-08-09T22:17:27.962Z,95163.13
2022-08-09T22:20:00.602Z,95161.53
2022-08-09T22:22:30.864Z,95163.88
2022-08-09T22:26:04.047Z,95161.31
2022-08-09T22:27:47.991Z,95162.31
2022-08-09T22:30:16.055Z,95165.44
2022-08-09T22:32:58.232Z,95169.75
2022-08-09T22:36:01.767Z,95159.91
2022-08-09T22:38:11.853Z,95161.63
2022-08-09T22:40:48.734Z,95162.38
2022-08-09T22:44:02.505Z,95163.38
2022-08-09T22:48:11.734Z,95165.88
2022-08-09T22:48:56.399Z,95161.53
2022-08-09T22:51:28.742Z,95160.94
2022-08-09T22:54:02.021Z,95159.38
2022-08-09T22:56:33.914Z,95165.88
2022-08-09T22:59:55.384Z,95163.34
2022-08-09T23:01:52.835Z,95162.47
2022-08-09T23:04:20.166Z,95156.63
2022-08-09T23:07:11.100Z,95157.97
2022-08-09T23:09:39.159Z,95161.47
2022-08-09T23:12:06.301Z,95159.44
2022-08-09T23:14:37.697Z,95168.25
2022-08-09T23:17:08.872Z,95166.22
2022-08-09T23:20:07.391Z,95168.69
2022-08-09T23:22:22.657Z,95170.28
2022-08-09T23:24:49.435Z,95164.56
2022-08-09T23:27:16.202Z,95163.69
2022-08-09T23:29:42.978Z,95167.69
2022-08-09T23:32:10.134Z,95163.06
2022-08-09T23:34:37.641Z,95150.50
2022-08-09T23:37:05.438Z,95156.41
2022-08-09T23:39:32.475Z,95150.59
2022-08-09T23:41:59.549Z,95149.09
2022-08-09T23:44:26.603Z,95152.91
2022-08-09T23:46:57.652Z,95147.22
2022-08-09T23:49:25.975Z,95145.34
2022-08-09T23:51:54.199Z,95138.19
2022-08-09T23:54:26.495Z,95148.00
2022-08-09T23:56:56.046Z,95148.50
2022-08-09T23:59:24.329Z,95145.38
